Time;durP1;ratioP1;P1;durP2;ratioP2;P2;SDS_P1;SDS_P2;PMS_P1;PMS_P2;Temp;Humidity;BMP_temperature;BMP_pressure;BME280_temperature;BME280_humidity;BME280_pressure;Samples;Min_cycle;Max_cycle;Signal;HPM_P1;HPM_P2
2022/01/13 00:01:16;;;;;;;35.60;19.00;;;0.00;74.40;;;;;;7376224;19;20131;-44
2022/01/13 00:03:48;;;;;;;27.60;17.35;;;0.10;75.00;;;;;;7370243;19;20152;-42
2022/01/13 00:06:18;;;;;;;32.65;16.60;;;0.10;74.50;;;;;;7377529;19;20128;-43
2022/01/13 00:08:48;;;;;;;30.67;17.58;;;0.10;74.60;;;;;;7378249;19;20123;-43
2022/01/13 00:11:17;;;;;;;31.20;18.33;;;0.10;74.40;;;;;;7366919;19;20517;-43
2022/01/13 00:13:51;;;;;;;33.50;18.90;;;0.10;74.90;;;;;;7373593;19;20131;-43
2022/01/13 00:16:39;;;;;;;32.58;18.20;;;0.10;74.70;;;;;;7371695;19;20131;-43
2022/01/13 00:19:33;;;;;;;31.77;17.55;;;0.20;74.50;;;;;;7375383;19;20135;-43
2022/01/13 00:22:17;;;;;;;26.95;17.45;;;0.30;73.80;;;;;;7361485;19;20964;-33
2022/01/13 00:24:50;;;;;;;37.38;19.67;;;0.40;73.30;;;;;;7356976;19;20139;-33
2022/01/13 00:27:22;;;;;;;32.55;18.35;;;0.50;72.30;;;;;;7368501;19;20127;-33
2022/01/13 00:29:55;;;;;;;33.40;18.00;;;0.60;71.80;;;;;;7370053;19;20239;-33
2022/01/13 00:32:29;;;;;;;30.95;18.27;;;0.60;72.10;;;;;;7369017;19;20159;-34
2022/01/13 00:35:01;;;;;;;30.83;19.83;;;0.50;72.00;;;;;;7370598;19;20158;-33
2022/01/13 00:37:30;;;;;;;35.03;18.95;;;0.50;72.60;;;;;;7373802;19;20135;-33
2022/01/13 00:40:00;;;;;;;30.15;18.55;;;0.70;72.40;;;;;;7374374;19;21084;-33
2022/01/13 00:42:29;;;;;;;35.13;18.00;;;0.70;71.30;;;;;;7366417;19;20620;-33
2022/01/13 00:45:00;;;;;;;26.27;15.52;;;0.70;72.50;;;;;;7370885;19;20139;-33
2022/01/13 00:47:30;;;;;;;30.08;16.88;;;0.80;71.90;;;;;;7368758;19;20513;-33
2022/01/13 00:50:02;;;;;;;32.08;18.30;;;0.90;71.70;;;;;;7373557;19;20131;-44
2022/01/13 00:52:32;;;;;;;29.02;16.80;;;0.90;70.80;;;;;;7368869;19;20235;-43
2022/01/13 00:55:08;;;;;;;31.77;18.63;;;1.00;71.10;;;;;;7375661;19;20120;-43
2022/01/13 00:57:38;;;;;;;34.42;18.67;;;0.90;70.00;;;;;;7368551;19;20225;-43
2022/01/13 01:00:09;;;;;;;31.48;18.58;;;0.80;70.10;;;;;;7372270;19;20123;-43
2022/01/13 01:02:38;;;;;;;33.92;19.92;;;0.60;70.80;;;;;;7366678;19;20143;-43
2022/01/13 01:05:11;;;;;;;30.48;17.58;;;0.70;70.80;;;;;;7367250;19;20128;-42
2022/01/13 01:07:41;;;;;;;31.08;17.48;;;0.50;70.90;;;;;;7368381;19;20621;-43
2022/01/13 01:10:11;;;;;;;34.85;19.55;;;0.40;71.50;;;;;;7366892;19;20134;-41
2022/01/13 01:12:41;;;;;;;35.60;18.25;;;0.40;71.50;;;;;;7366966;19;20123;-43
2022/01/13 01:15:12;;;;;;;34.58;17.70;;;0.50;71.60;;;;;;7369912;19;20660;-44
2022/01/13 01:17:47;;;;;;;34.00;19.50;;;0.60;71.20;;;;;;7371585;19;20587;-43
2022/01/13 01:20:20;;;;;;;33.58;18.70;;;0.50;71.40;;;;;;7373365;19;20119;-43
2022/01/13 01:23:10;;;;;;;36.72;19.40;;;0.60;71.30;;;;;;7370694;19;21265;-43
2022/01/13 01:25:59;;;;;;;32.70;18.45;;;0.60;71.10;;;;;;7365593;19;20135;-44
2022/01/13 01:28:39;;;;;;;35.78;19.60;;;0.60;71.00;;;;;;7374641;19;20624;-43
2022/01/13 01:31:09;;;;;;;31.52;18.50;;;0.50;71.40;;;;;;7360953;19;20172;-43
2022/01/13 01:33:44;;;;;;;35.20;20.40;;;0.60;71.60;;;;;;7364945;19;20124;-43
2022/01/13 01:36:16;;;;;;;37.78;19.05;;;0.60;71.60;;;;;;7371756;19;20153;-42
2022/01/13 01:38:49;;;;;;;32.78;19.15;;;0.60;72.20;;;;;;7366329;19;20590;-43
2022/01/13 01:41:19;;;;;;;33.60;18.10;;;0.60;72.60;;;;;;7371564;19;20717;-43
2022/01/13 01:43:50;;;;;;;31.48;18.30;;;0.60;72.60;;;;;;7367900;19;20142;-43
2022/01/13 01:46:20;;;;;;;29.55;18.35;;;0.50;72.90;;;;;;7367062;19;20498;-43
2022/01/13 01:48:49;;;;;;;35.67;18.85;;;0.50;73.30;;;;;;7368400;19;20143;-43
2022/01/13 01:51:21;;;;;;;31.83;19.10;;;0.60;73.10;;;;;;7368081;19;20143;-43
2022/01/13 01:53:51;;;;;;;29.60;18.10;;;0.90;73.70;;;;;;7367752;19;20127;-43
2022/01/13 01:56:21;;;;;;;32.85;17.00;;;0.50;73.40;;;;;;7366379;19;21077;-41
2022/01/13 01:58:50;;;;;;;37.42;17.70;;;0.50;73.40;;;;;;7375832;19;20128;-43
2022/01/13 02:01:20;;;;;;;33.88;18.80;;;0.50;73.20;;;;;;7365486;19;20144;-43
2022/01/13 02:03:49;;;;;;;34.03;19.48;;;0.60;73.20;;;;;;7366359;19;20135;-43
2022/01/13 02:06:22;;;;;;;27.88;17.63;;;0.50;72.80;;;;;;7370026;19;20220;-43
2022/01/13 02:08:51;;;;;;;34.72;18.67;;;0.50;73.50;;;;;;7370406;19;20242;-44
2022/01/13 02:11:21;;;;;;;30.98;20.20;;;0.60;73.30;;;;;;7364636;19;20155;-43
2022/01/13 02:13:55;;;;;;;40.85;20.40;;;0.60;73.00;;;;;;7366581;19;20139;-43
2022/01/13 02:16:38;;;;;;;37.28;20.15;;;0.50;72.60;;;;;;7364795;19;20127;-43
2022/01/13 02:19:08;;;;;;;30.20;17.67;;;0.50;73.10;;;;;;7371238;19;20154;-43
2022/01/13 02:21:40;;;;;;;30.77;19.42;;;0.50;73.00;;;;;;7371975;19;20132;-43
2022/01/13 02:24:10;;;;;;;37.75;20.60;;;0.50;72.80;;;;;;7368532;19;20796;-43
2022/01/13 02:26:39;;;;;;;35.35;18.75;;;0.50;72.60;;;;;;7372339;19;20135;-43
2022/01/13 02:29:09;;;;;;;34.45;19.33;;;0.50;72.90;;;;;;7366018;19;20888;-43
2022/01/13 02:31:39;;;;;;;35.78;19.67;;;0.50;73.30;;;;;;7366615;19;20507;-43
2022/01/13 02:34:08;;;;;;;30.42;17.58;;;0.60;73.80;;;;;;7371007;19;20135;-43
2022/01/13 02:36:42;;;;;;;35.97;20.27;;;0.70;72.70;;;;;;7368917;19;20195;-43
2022/01/13 02:39:11;;;;;;;36.22;18.48;;;0.80;72.10;;;;;;7367179;19;20135;-43
2022/01/13 02:41:41;;;;;;;33.05;18.30;;;0.70;72.20;;;;;;7364917;19;20146;-43
2022/01/13 02:44:16;;;;;;;30.92;17.63;;;0.80;72.70;;;;;;7363492;19;20761;-43
2022/01/13 02:47:08;;;;;;;31.42;18.95;;;0.80;72.10;;;;;;7368061;19;20507;-43
2022/01/13 02:49:38;;;;;;;30.35;16.33;;;0.80;72.20;;;;;;7367914;19;20618;-43
2022/01/13 02:52:11;;;;;;;29.98;18.38;;;0.80;73.20;;;;;;7371085;19;20135;-43
2022/01/13 02:54:40;;;;;;;27.40;18.00;;;0.70;72.80;;;;;;7359514;19;20498;-43
2022/01/13 02:57:12;;;;;;;37.47;19.45;;;0.80;72.90;;;;;;7369295;19;20127;-43
2022/01/13 02:59:44;;;;;;;35.25;20.05;;;0.70;72.90;;;;;;7373850;19;20699;-44
2022/01/13 03:02:13;;;;;;;32.40;17.75;;;0.80;73.20;;;;;;7370025;19;20131;-44
2022/01/13 03:04:48;;;;;;;33.45;18.98;;;0.70;73.30;;;;;;7372014;19;20135;-43
2022/01/13 03:07:20;;;;;;;28.77;17.45;;;0.70;73.30;;;;;;7368188;19;20592;-43
2022/01/13 03:09:49;;;;;;;28.65;18.48;;;0.70;72.90;;;;;;7376909;19;20139;-43
2022/01/13 03:12:19;;;;;;;33.13;17.80;;;0.70;73.00;;;;;;7363125;19;20162;-44
2022/01/13 03:14:49;;;;;;;32.45;19.35;;;0.80;73.10;;;;;;7372722;19;20131;-43
2022/01/13 03:17:18;;;;;;;37.03;20.40;;;0.70;72.90;;;;;;7370100;19;20128;-43
2022/01/13 03:19:48;;;;;;;33.53;18.98;;;0.70;73.30;;;;;;7374838;19;20963;-43
2022/01/13 03:22:20;;;;;;;27.73;17.13;;;0.70;73.20;;;;;;7370530;19;20119;-44
2022/01/13 03:24:50;;;;;;;34.63;17.77;;;0.70;73.80;;;;;;7374885;19;20123;-44
2022/01/13 03:27:23;;;;;;;27.75;17.55;;;0.70;73.40;;;;;;7376063;19;20131;-43
2022/01/13 03:29:53;;;;;;;28.00;18.75;;;0.80;73.20;;;;;;7374759;19;20520;-43
2022/01/13 03:32:23;;;;;;;32.42;18.90;;;0.90;72.50;;;;;;7370544;19;20128;-44
2022/01/13 03:34:52;;;;;;;29.27;17.98;;;0.80;72.60;;;;;;7373453;19;20135;-44
2022/01/13 03:37:24;;;;;;;30.85;18.25;;;0.90;72.70;;;;;;7373325;19;20127;-44
2022/01/13 03:39:54;;;;;;;31.52;19.40;;;0.90;72.40;;;;;;7368596;19;20154;-43
2022/01/13 03:42:23;;;;;;;31.75;18.52;;;1.00;72.80;;;;;;7378083;19;20132;-43
2022/01/13 03:44:54;;;;;;;27.02;17.55;;;1.10;72.10;;;;;;7374616;19;20678;-44
2022/01/13 03:47:24;;;;;;;30.95;18.42;;;1.20;71.60;;;;;;7376822;19;20139;-43
2022/01/13 03:49:54;;;;;;;30.73;15.90;;;1.10;71.70;;;;;;7371364;19;20155;-43
2022/01/13 03:52:56;;;;;;;32.40;18.55;;;1.00;72.10;;;;;;7375301;19;20167;-44
2022/01/13 03:55:55;;;;;;;30.33;17.88;;;1.00;72.00;;;;;;7375280;19;20136;-43
2022/01/13 03:59:16;;;;;;;29.70;19.63;;;1.10;72.20;;;;;;7374141;19;20135;-43
2022/01/13 04:02:08;;;;;;;29.70;18.52;;;1.00;72.10;;;;;;7372660;19;20648;-44
2022/01/13 04:04:40;;;;;;;29.20;17.80;;;1.00;72.70;;;;;;7374211;19;20136;-44
2022/01/13 04:07:15;;;;;;;25.92;16.23;;;1.00;72.60;;;;;;7377314;19;20147;-44
2022/01/13 04:10:23;;;;;;;29.30;17.30;;;1.10;72.60;;;;;;7376660;19;20135;-43
2022/01/13 04:12:53;;;;;;;29.40;17.17;;;1.20;72.10;;;;;;7375457;19;20646;-43
2022/01/13 04:15:29;;;;;;;26.05;17.67;;;1.20;72.10;;;;;;7373670;19;20449;-43
2022/01/13 04:17:59;;;;;;;28.33;17.70;;;1.20;71.80;;;;;;7381369;19;20161;-43
2022/01/13 04:20:29;;;;;;;32.42;17.73;;;1.20;71.80;;;;;;7375670;19;20136;-43
2022/01/13 04:22:58;;;;;;;29.77;18.10;;;1.20;72.30;;;;;;7385353;19;20135;-44
2022/01/13 04:25:29;;;;;;;26.63;17.10;;;1.20;71.80;;;;;;7376176;19;20132;-43
2022/01/13 04:28:02;;;;;;;29.45;19.08;;;1.20;71.90;;;;;;7374857;19;20207;-43
2022/01/13 04:30:49;;;;;;;28.08;17.20;;;1.20;71.60;;;;;;7367978;19;20120;-43
2022/01/13 04:33:19;;;;;;;29.25;18.30;;;1.20;72.00;;;;;;7369749;19;20793;-43
2022/01/13 04:35:48;;;;;;;31.85;19.08;;;1.10;73.00;;;;;;7377464;19;20136;-43
2022/01/13 04:38:18;;;;;;;26.73;17.77;;;1.00;73.40;;;;;;7369763;19;20146;-43
2022/01/13 04:40:54;;;;;;;26.73;17.90;;;0.80;73.90;;;;;;7374901;19;20158;-43
2022/01/13 04:43:25;;;;;;;31.83;17.55;;;1.00;73.90;;;;;;7366221;19;20802;-44
2022/01/13 04:45:57;;;;;;;27.38;16.48;;;0.90;73.00;;;;;;7360849;19;20120;-43
2022/01/13 04:48:27;;;;;;;32.38;19.00;;;0.80;73.30;;;;;;7370758;19;20151;-43
2022/01/13 04:50:56;;;;;;;29.23;17.70;;;0.80;73.90;;;;;;7372754;19;20131;-44
2022/01/13 04:53:27;;;;;;;35.20;16.83;;;0.90;73.70;;;;;;7372107;19;20142;-44
2022/01/13 04:55:58;;;;;;;29.70;19.45;;;1.00;73.30;;;;;;7368188;19;20132;-43
2022/01/13 04:58:30;;;;;;;30.10;16.63;;;1.00;72.50;;;;;;7370012;19;20155;-44
2022/01/13 05:01:02;;;;;;;32.55;17.52;;;1.00;72.40;;;;;;7366137;19;20140;-43
2022/01/13 05:03:31;;;;;;;28.65;17.30;;;1.10;72.50;;;;;;7374123;19;20139;-43
2022/01/13 05:06:01;;;;;;;28.90;16.95;;;1.00;72.20;;;;;;7370616;19;20163;-43
2022/01/13 05:08:31;;;;;;;26.58;16.35;;;1.00;72.70;;;;;;7374072;19;20164;-43
2022/01/13 05:11:00;;;;;;;28.80;17.73;;;1.00;73.30;;;;;;7362128;19;20167;-43
2022/01/13 05:13:29;;;;;;;26.05;16.75;;;1.00;73.40;;;;;;7369342;19;20654;-44
2022/01/13 05:16:02;;;;;;;29.95;17.38;;;1.00;73.10;;;;;;7368999;19;20839;-44
2022/01/13 05:18:44;;;;;;;24.83;16.60;;;1.00;73.40;;;;;;7375658;19;20192;-43
2022/01/13 05:21:22;;;;;;;31.10;18.20;;;1.10;73.70;;;;;;7371343;19;20135;-43
2022/01/13 05:23:52;;;;;;;23.30;16.60;;;1.10;72.30;;;;;;7374910;19;20142;-44
2022/01/13 05:26:23;;;;;;;29.52;16.90;;;1.00;72.40;;;;;;7367920;19;20124;-43
2022/01/13 05:28:53;;;;;;;22.75;15.63;;;1.10;72.60;;;;;;7369446;19;20131;-44
2022/01/13 05:31:27;;;;;;;31.23;16.77;;;1.10;72.60;;;;;;7366556;19;20637;-44
2022/01/13 05:33:57;;;;;;;27.55;17.02;;;1.20;72.20;;;;;;7373142;19;20231;-43
2022/01/13 05:36:26;;;;;;;22.90;15.32;;;1.30;71.80;;;;;;7368397;19;20131;-44
2022/01/13 05:38:56;;;;;;;31.60;18.85;;;1.40;71.30;;;;;;7360175;19;20227;-43
2022/01/13 05:41:25;;;;;;;27.77;16.10;;;1.40;71.00;;;;;;7360211;19;20904;-43
2022/01/13 05:43:55;;;;;;;36.97;18.08;;;1.40;71.60;;;;;;7358362;19;20129;-43
2022/01/13 05:46:27;;;;;;;26.00;15.85;;;1.30;71.50;;;;;;7363219;19;20135;-43
2022/01/13 05:48:59;;;;;;;29.58;18.00;;;1.30;71.70;;;;;;7362137;19;20214;-43
2022/01/13 05:51:29;;;;;;;26.48;16.40;;;1.20;72.40;;;;;;7367481;19;20139;-43
2022/01/13 05:53:58;;;;;;;28.70;17.70;;;1.20;72.70;;;;;;7370982;19;20155;-43
2022/01/13 05:56:28;;;;;;;32.30;17.35;;;0.90;73.70;;;;;;7365193;19;20200;-43
2022/01/13 05:58:57;;;;;;;21.67;15.45;;;0.90;74.60;;;;;;7365230;19;20127;-44
2022/01/13 06:01:29;;;;;;;28.45;18.02;;;0.90;75.00;;;;;;7364896;19;20127;-43
2022/01/13 06:03:59;;;;;;;29.08;16.92;;;1.00;74.60;;;;;;7360627;19;20650;-43
2022/01/13 06:06:28;;;;;;;32.17;18.95;;;1.00;73.30;;;;;;7362525;19;20678;-43
2022/01/13 06:08:58;;;;;;;26.35;16.42;;;1.00;73.40;;;;;;7365003;19;20127;-43
2022/01/13 06:11:37;;;;;;;30.23;17.67;;;1.10;73.30;;;;;;7372282;19;20159;-43
2022/01/13 06:14:08;;;;;;;28.05;16.50;;;1.10;72.80;;;;;;7373002;19;20125;-43
2022/01/13 06:16:40;;;;;;;24.42;17.13;;;1.10;73.00;;;;;;7375440;19;20128;-43
2022/01/13 06:19:09;;;;;;;30.13;17.08;;;1.10;73.00;;;;;;7368300;19;20151;-43
2022/01/13 06:21:39;;;;;;;27.77;16.95;;;1.00;72.70;;;;;;7376638;19;20178;-44
2022/01/13 06:24:11;;;;;;;26.65;16.83;;;1.00;73.10;;;;;;7373274;19;20128;-43
2022/01/13 06:26:40;;;;;;;30.40;18.15;;;1.10;73.10;;;;;;7367146;19;20614;-43
2022/01/13 06:29:10;;;;;;;29.50;16.52;;;1.10;72.90;;;;;;7374122;19;20161;-43
2022/01/13 06:31:42;;;;;;;29.23;17.17;;;1.10;73.20;;;;;;7373246;19;20128;-43
2022/01/13 06:34:12;;;;;;;24.85;16.63;;;1.00;73.60;;;;;;7381321;19;20140;-44
2022/01/13 06:36:41;;;;;;;30.00;15.20;;;1.00;74.00;;;;;;7384188;19;20127;-44
2022/01/13 06:39:11;;;;;;;22.75;15.55;;;1.00;74.00;;;;;;7382840;19;20143;-43
2022/01/13 06:41:41;;;;;;;26.55;16.63;;;1.00;74.00;;;;;;7379319;19;20135;-33
2022/01/13 06:44:12;;;;;;;24.10;17.45;;;1.00;74.40;;;;;;7380126;19;20610;-33
2022/01/13 06:46:45;;;;;;;38.38;16.08;;;1.00;74.00;;;;;;7379133;19;20143;-33
2022/01/13 06:49:14;;;;;;;29.95;16.90;;;1.00;74.50;;;;;;7379214;19;20634;-33
2022/01/13 06:51:44;;;;;;;31.75;17.75;;;0.90;74.50;;;;;;7380439;19;20669;-33
2022/01/13 06:54:13;;;;;;;25.13;16.45;;;1.00;74.40;;;;;;7379760;19;20127;-34
2022/01/13 06:56:47;;;;;;;22.65;15.88;;;1.10;74.10;;;;;;7378167;19;20165;-33
2022/01/13 06:59:17;;;;;;;25.92;15.05;;;1.00;73.90;;;;;;7374318;19;20163;-34
2022/01/13 07:01:50;;;;;;;24.83;15.40;;;1.00;74.00;;;;;;7376715;19;20138;-33
2022/01/13 07:04:20;;;;;;;26.35;16.13;;;0.90;73.60;;;;;;7378759;19;20843;-33
2022/01/13 07:06:49;;;;;;;25.70;14.73;;;0.90;73.80;;;;;;7379031;19;20605;-33
2022/01/13 07:09:21;;;;;;;26.25;17.80;;;0.90;74.40;;;;;;7369822;19;20131;-33
2022/01/13 07:11:51;;;;;;;28.63;15.75;;;0.80;74.00;;;;;;7366856;19;20227;-43
2022/01/13 07:14:22;;;;;;;28.52;17.25;;;0.70;74.50;;;;;;7375325;19;20140;-43
2022/01/13 07:16:55;;;;;;;24.05;15.10;;;0.70;74.90;;;;;;7376097;19;20641;-43
2022/01/13 07:19:24;;;;;;;38.13;18.05;;;0.80;74.60;;;;;;7376112;19;20135;-43
2022/01/13 07:21:54;;;;;;;35.63;18.38;;;0.70;74.70;;;;;;7380939;19;20472;-42
2022/01/13 07:24:23;;;;;;;25.27;17.55;;;0.70;74.90;;;;;;7374863;19;20132;-43
2022/01/13 07:26:53;;;;;;;30.52;18.05;;;0.70;74.90;;;;;;7370962;19;20128;-43
2022/01/13 07:29:23;;;;;;;28.45;16.20;;;0.70;74.90;;;;;;7376779;19;20136;-43
2022/01/13 07:31:55;;;;;;;24.83;15.68;;;0.80;74.80;;;;;;7377546;19;20614;-43
2022/01/13 07:34:27;;;;;;;30.52;17.67;;;0.90;74.30;;;;;;7379817;19;20139;-43
2022/01/13 07:36:56;;;;;;;31.02;16.10;;;0.90;74.10;;;;;;7382877;19;20138;-43
2022/01/13 07:39:26;;;;;;;27.95;16.80;;;0.80;74.20;;;;;;7378420;19;20139;-43
2022/01/13 07:41:56;;;;;;;36.15;17.02;;;0.80;74.20;;;;;;7379490;19;20139;-43
2022/01/13 07:44:25;;;;;;;30.10;17.77;;;0.80;74.10;;;;;;7375940;19;20151;-43
2022/01/13 07:46:59;;;;;;;31.33;17.05;;;0.90;74.10;;;;;;7374397;19;20503;-43
2022/01/13 07:49:28;;;;;;;35.50;18.58;;;0.90;73.70;;;;;;7375949;19;20721;-43
2022/01/13 07:51:58;;;;;;;35.35;16.30;;;0.90;73.40;;;;;;7376130;19;20132;-42
2022/01/13 07:54:31;;;;;;;23.65;16.33;;;0.80;73.50;;;;;;7373987;19;21141;-43
2022/01/13 07:57:01;;;;;;;30.23;16.33;;;0.80;73.70;;;;;;7375548;19;20163;-43
2022/01/13 07:59:33;;;;;;;30.55;17.77;;;0.70;73.30;;;;;;7382505;19;20590;-43
2022/01/13 08:02:06;;;;;;;25.35;16.00;;;0.80;73.10;;;;;;7371392;19;20135;-43
2022/01/13 08:04:35;;;;;;;31.45;16.58;;;0.70;73.10;;;;;;7380542;19;20243;-43
2022/01/13 08:07:07;;;;;;;27.48;17.02;;;0.70;73.30;;;;;;7382053;19;20760;-42
2022/01/13 08:09:39;;;;;;;25.05;16.52;;;0.60;73.80;;;;;;7381304;19;20131;-43
2022/01/13 08:12:10;;;;;;;25.17;15.27;;;0.60;73.80;;;;;;7374443;19;20175;-43
2022/01/13 08:14:40;;;;;;;27.17;16.77;;;0.80;73.50;;;;;;7380483;19;20154;-43
2022/01/13 08:19:45;;;;;;;23.02;14.45;;;0.80;73.00;;;;;;7380087;19;20127;-44
2022/01/13 08:19:59;;;;;;;31.65;16.50;;;1.10;73.00;;;;;;7373573;19;20127;-44
2022/01/13 08:22:31;;;;;;;24.30;15.55;;;1.40;71.50;;;;;;7376572;19;20127;-43
2022/01/13 08:25:00;;;;;;;24.60;14.80;;;1.40;71.40;;;;;;7368013;19;20135;-43
2022/01/13 08:27:30;;;;;;;24.20;15.05;;;1.30;71.30;;;;;;7358783;19;20127;-43
2022/01/13 08:30:00;;;;;;;22.23;14.38;;;1.30;71.80;;;;;;7367099;19;20471;-42
2022/01/13 08:32:32;;;;;;;24.25;14.85;;;1.20;72.20;;;;;;7358639;19;20132;-44
2022/01/13 08:35:01;;;;;;;19.00;12.50;;;1.30;72.20;;;;;;7370971;19;20146;-43
2022/01/13 08:37:33;;;;;;;25.77;14.93;;;1.40;71.90;;;;;;7368677;19;20131;-44
2022/01/13 08:40:03;;;;;;;23.30;13.48;;;1.40;71.60;;;;;;7371935;19;20140;-44
2022/01/13 08:42:32;;;;;;;19.60;13.55;;;1.60;72.20;;;;;;7372980;19;20128;-44
2022/01/13 08:45:02;;;;;;;24.35;13.82;;;1.80;71.60;;;;;;7368837;19;20151;-44
2022/01/13 08:47:34;;;;;;;21.90;14.07;;;1.90;70.90;;;;;;7370537;19;20781;-44
2022/01/13 08:50:05;;;;;;;19.95;13.23;;;1.90;70.10;;;;;;7374070;19;20142;-43
2022/01/13 08:52:37;;;;;;;22.50;12.98;;;2.00;70.80;;;;;;7376464;19;20136;-43
2022/01/13 08:55:08;;;;;;;19.30;13.25;;;2.00;69.90;;;;;;7373536;19;20144;-43
2022/01/13 08:57:38;;;;;;;20.50;13.30;;;1.80;70.60;;;;;;7372740;19;20207;-43
2022/01/13 09:00:09;;;;;;;22.92;13.27;;;1.80;70.90;;;;;;7381346;19;20123;-43
2022/01/13 09:02:43;;;;;;;21.70;14.23;;;1.60;70.80;;;;;;7381431;19;20138;-43
2022/01/13 09:05:14;;;;;;;27.95;13.35;;;1.50;71.40;;;;;;7381386;19;20131;-44
2022/01/13 09:07:44;;;;;;;23.65;13.68;;;1.60;71.10;;;;;;7374673;19;20139;-43
2022/01/13 09:10:16;;;;;;;26.98;13.07;;;1.70;71.00;;;;;;7379604;19;20128;-43
2022/01/13 09:12:46;;;;;;;23.48;13.63;;;1.80;71.00;;;;;;7381117;19;20138;-44
2022/01/13 09:15:31;;;;;;;16.88;12.00;;;2.70;68.70;;;;;;7381057;19;20132;-44
2022/01/13 09:18:08;;;;;;;18.95;11.25;;;4.10;62.70;;;;;;7382803;19;20124;-44
2022/01/13 09:20:39;;;;;;;15.20;10.32;;;5.30;58.50;;;;;;7378917;19;20609;-44
2022/01/13 09:23:09;;;;;;;19.65;10.85;;;6.40;56.70;;;;;;7377917;19;20743;-44
2022/01/13 09:25:39;;;;;;;13.73;9.82;;;7.50;54.10;;;;;;7383866;19;20135;-45
2022/01/13 09:28:10;;;;;;;17.33;11.70;;;8.50;51.90;;;;;;7376313;19;20689;-43
2022/01/13 09:30:42;;;;;;;16.97;11.30;;;9.70;49.10;;;;;;7380473;19;20127;-42
2022/01/13 09:33:14;;;;;;;16.83;12.20;;;10.10;46.00;;;;;;7381452;19;21212;-43
2022/01/13 09:35:44;;;;;;;16.47;12.73;;;9.70;46.70;;;;;;7382237;19;20412;-43
2022/01/13 09:38:16;;;;;;;17.30;14.73;;;9.40;46.90;;;;;;7380211;19;20438;-43
2022/01/13 09:40:47;;;;;;;18.57;14.30;;;9.30;46.20;;;;;;7379740;19;20380;-42
2022/01/13 09:43:18;;;;;;;19.03;14.33;;;9.60;45.70;;;;;;7380649;19;20380;-43
2022/01/13 09:45:50;;;;;;;17.20;13.33;;;8.80;46.50;;;;;;7382877;19;20467;-43
2022/01/13 09:48:22;;;;;;;19.17;14.03;;;8.10;46.70;;;;;;7374703;19;20419;-42
2022/01/13 09:50:52;;;;;;;17.03;13.30;;;6.70;49.10;;;;;;7381245;19;20823;-42
2022/01/13 09:53:22;;;;;;;18.90;14.50;;;5.90;51.80;;;;;;7381340;19;20379;-42
2022/01/13 09:55:52;;;;;;;17.75;13.30;;;5.70;52.20;;;;;;7379126;19;21169;-42
2022/01/13 09:58:21;;;;;;;19.48;14.32;;;4.70;54.60;;;;;;7381064;19;20653;-43
2022/01/13 10:00:51;;;;;;;21.52;13.45;;;5.30;55.50;;;;;;7381367;19;20131;-43
2022/01/13 10:03:27;;;;;;;15.57;12.30;;;7.00;52.70;;;;;;7379774;19;20132;-43
2022/01/13 10:05:58;;;;;;;15.53;12.83;;;8.30;50.40;;;;;;7384213;19;20127;-43
2022/01/13 10:08:44;;;;;;;17.45;12.82;;;8.20;47.60;;;;;;7387031;19;20730;-43
2022/01/13 10:11:33;;;;;;;16.23;13.60;;;7.40;48.80;;;;;;7381585;19;20166;-43
2022/01/13 10:14:10;;;;;;;18.90;13.52;;;6.70;50.80;;;;;;7388818;19;20123;-43
2022/01/13 10:16:44;;;;;;;16.95;12.77;;;6.10;52.20;;;;;;7389659;19;20135;-43
2022/01/13 10:19:34;;;;;;;17.85;12.18;;;5.50;53.70;;;;;;7387732;19;20183;-43
2022/01/13 10:22:08;;;;;;;19.38;12.73;;;5.00;55.00;;;;;;7390141;19;20135;-42
2022/01/13 10:24:39;;;;;;;17.80;12.35;;;4.80;55.50;;;;;;7386840;19;20138;-42
2022/01/13 10:27:13;;;;;;;19.38;12.95;;;4.20;57.00;;;;;;7384964;19;20127;-42
2022/01/13 10:29:45;;;;;;;18.63;12.98;;;3.90;57.80;;;;;;7385637;19;20128;-42
2022/01/13 10:32:18;;;;;;;23.15;12.52;;;3.80;58.40;;;;;;7389055;19;20487;-42
2022/01/13 10:34:53;;;;;;;18.58;12.90;;;3.60;58.80;;;;;;7384905;19;20151;-42
2022/01/13 10:37:30;;;;;;;18.52;12.48;;;3.50;59.00;;;;;;7387036;19;20134;-42
2022/01/13 10:40:03;;;;;;;18.27;13.02;;;3.60;58.70;;;;;;7385227;19;20535;-42
2022/01/13 10:45:34;;;;;;;17.75;11.80;;;3.50;59.50;;;;;;7389601;19;20135;-42
2022/01/13 10:48:08;;;;;;;21.50;12.05;;;3.30;60.00;;;;;;7384943;19;20688;-42
2022/01/13 10:50:43;;;;;;;19.58;12.25;;;3.30;60.50;;;;;;7384804;19;20127;-43
2022/01/13 10:53:16;;;;;;;16.80;11.65;;;3.50;60.40;;;;;;7384260;19;20134;-43
2022/01/13 10:55:48;;;;;;;22.52;12.57;;;3.60;59.70;;;;;;7385582;19;20131;-42
2022/01/13 10:58:26;;;;;;;20.50;11.57;;;3.60;59.50;;;;;;7383647;19;20647;-42
2022/01/13 11:00:56;;;;;;;18.40;11.23;;;3.70;59.50;;;;;;7382300;19;20143;-43
2022/01/13 11:03:28;;;;;;;16.20;11.80;;;3.50;59.80;;;;;;7383534;19;20131;-42
2022/01/13 11:06:02;;;;;;;18.63;11.90;;;3.60;59.90;;;;;;7382589;19;20499;-43
2022/01/13 11:08:39;;;;;;;21.63;12.35;;;3.70;60.00;;;;;;7381918;19;20131;-42
2022/01/13 11:11:19;;;;;;;13.50;9.95;;;3.80;59.80;;;;;;7375839;19;20155;-43
2022/01/13 11:13:53;;;;;;;15.43;10.65;;;5.70;58.90;;;;;;7377448;19;20142;-43
2022/01/13 11:16:24;;;;;;;15.60;11.60;;;8.10;53.60;;;;;;7383089;19;20598;-44
2022/01/13 11:18:54;;;;;;;15.55;10.30;;;10.60;47.40;;;;;;7386778;19;20139;-43
2022/01/13 11:21:28;;;;;;;14.50;11.47;;;12.70;43.10;;;;;;7383212;19;20128;-44
2022/01/13 11:23:59;;;;;;;11.67;9.40;;;13.10;41.30;;;;;;7384933;19;20443;-44
2022/01/13 11:26:30;;;;;;;13.83;11.33;;;15.10;38.50;;;;;;7386165;19;20384;-44
2022/01/13 11:29:01;;;;;;;14.60;11.17;;;16.20;36.50;;;;;;7390130;19;20456;-45
2022/01/13 11:31:31;;;;;;;13.47;10.87;;;17.10;34.50;;;;;;7388189;19;20376;-44
2022/01/13 11:34:01;;;;;;;13.43;10.47;;;17.50;33.30;;;;;;7385625;19;20384;-43
2022/01/13 11:36:33;;;;;;;13.30;11.07;;;17.80;32.50;;;;;;7387109;19;20753;-44
2022/01/13 11:39:06;;;;;;;12.73;10.40;;;17.80;32.00;;;;;;7392991;19;20373;-44
2022/01/13 11:41:36;;;;;;;12.60;10.50;;;16.70;32.20;;;;;;7384485;19;20384;-44
2022/01/13 11:44:17;;;;;;;14.40;11.93;;;15.80;33.90;;;;;;7381309;19;20379;-44
2022/01/13 11:46:48;;;;;;;12.20;9.93;;;15.30;34.80;;;;;;7385255;19;20368;-44
2022/01/13 11:49:25;;;;;;;17.27;11.20;;;14.60;34.70;;;;;;7382771;19;20400;-44
2022/01/13 11:52:02;;;;;;;15.73;12.53;;;12.70;37.20;;;;;;7387106;19;20453;-34
2022/01/13 11:54:36;;;;;;;15.63;12.63;;;10.90;40.60;;;;;;7387919;19;20471;-34
2022/01/13 11:57:21;;;;;;;21.47;12.23;;;9.80;43.70;;;;;;7383293;19;20938;-34
2022/01/13 12:00:23;;;;;;;16.93;13.87;;;9.00;45.40;;;;;;7387004;19;20376;-34
2022/01/13 12:02:54;;;;;;;20.60;12.70;;;8.30;47.20;;;;;;7384117;19;20412;-34
2022/01/13 12:05:26;;;;;;;15.80;11.90;;;7.70;49.10;;;;;;7383639;19;20377;-34
2022/01/13 12:08:01;;;;;;;16.47;12.53;;;7.40;50.00;;;;;;7381069;19;20377;-34
2022/01/13 12:10:52;;;;;;;14.20;11.73;;;7.00;50.30;;;;;;7380818;19;20401;-33
2022/01/13 12:13:44;;;;;;;19.43;11.63;;;7.10;50.70;;;;;;7385629;19;20416;-34
2022/01/13 12:16:14;;;;;;;18.30;12.40;;;7.60;50.30;;;;;;7385708;19;20368;-34
2022/01/13 12:19:13;;;;;;;17.63;12.50;;;7.30;50.30;;;;;;7382872;19;20379;-34
2022/01/13 12:21:56;;;;;;;18.13;12.80;;;9.40;48.60;;;;;;7377396;19;20380;-34
2022/01/13 12:24:50;;;;;;;21.43;13.33;;;11.80;43.00;;;;;;7384407;19;20387;-34
2022/01/13 12:27:21;;;;;;;13.60;11.30;;;10.70;42.00;;;;;;7380561;19;20380;-35
2022/01/13 12:29:53;;;;;;;17.57;11.33;;;9.30;46.00;;;;;;7379707;19;21060;-34
2022/01/13 12:32:42;;;;;;;14.93;11.30;;;8.30;47.80;;;;;;7383295;19;20416;-34
2022/01/13 12:35:13;;;;;;;11.87;10.67;;;8.00;48.80;;;;;;7385957;19;20446;-34
2022/01/13 12:37:43;;;;;;;14.80;10.20;;;7.60;49.50;;;;;;7384394;19;20401;-34
2022/01/13 12:40:19;;;;;;;15.37;10.77;;;7.30;50.30;;;;;;7386078;19;20383;-34
2022/01/13 12:42:55;;;;;;;16.17;10.95;;;7.00;51.20;;;;;;7382301;19;20372;-34
2022/01/13 12:45:32;;;;;;;15.50;11.52;;;6.80;52.10;;;;;;7381541;19;20128;-34
2022/01/13 12:48:04;;;;;;;16.65;11.13;;;6.70;52.40;;;;;;7381086;19;20636;-34
2022/01/13 12:50:37;;;;;;;15.13;11.05;;;6.30;52.50;;;;;;7381355;19;20136;-43
2022/01/13 12:53:17;;;;;;;19.23;11.95;;;6.10;53.10;;;;;;7382977;19;20147;-43
2022/01/13 12:55:58;;;;;;;17.75;11.05;;;6.00;53.70;;;;;;7382600;19;20127;-43
2022/01/13 12:58:30;;;;;;;16.42;11.25;;;5.80;54.20;;;;;;7383610;19;20139;-43
2022/01/13 13:01:02;;;;;;;15.43;10.30;;;5.80;54.30;;;;;;7379649;19;20648;-43
2022/01/13 13:03:31;;;;;;;16.05;11.18;;;5.80;54.50;;;;;;7379982;19;20181;-44
2022/01/13 13:06:01;;;;;;;17.40;11.52;;;5.90;54.50;;;;;;7381914;19;20487;-43
2022/01/13 13:08:34;;;;;;;17.65;9.57;;;5.90;54.80;;;;;;7378609;19;20128;-43